PST,Max TemperatureF,Mean TemperatureF,Min TemperatureF,Max Dew PointF,MeanDew PointF,Min DewpointF,Max Humidity, Mean Humidity, Min Humidity, Max Sea Level PressureIn, Mean Sea Level PressureIn, Min Sea Level PressureIn, Max VisibilityMiles, Mean VisibilityMiles, Min VisibilityMiles, Max Wind SpeedMPH, Mean Wind SpeedMPH, Max Gust SpeedMPH,PrecipitationIn, CloudCover, Events, WindDirDegrees
2013-2-1,66,49,32,31,29,26,79,50,24,30.29,30.24,30.17,10,10,10,7,4,,0.00,0,,198
2013-2-2,66,52,37,32,30,26,70,44,22,30.34,30.26,30.21,10,10,10,6,2,,0.00,2,,185
2013-2-3,69,58,45,40,35,31,68,46,24,30.19,30.10,30.01,10,10,10,8,4,,0.00,2,Rain,175
2013-2-4,71,52,34,31,24,19,73,38,15,30.14,30.07,30.01,10,10,10,10,6,,0.00,0,,166
2013-2-5,69,52,34,26,23,19,61,34,18,30.04,29.93,29.82,10,10,10,21,4,29,0.00,3,,240
2013-2-6,68,52,35,26,19,5,57,30,9,30.07,29.98,29.83,10,10,10,20,8,25,0.00,0,,221
2013-2-7,66,48,30,28,20,10,61,37,11,30.09,29.96,29.79,10,10,10,22,8,31,0.00,0,,194
2013-2-8,53,44,36,28,22,16,53,39,23,29.81,29.76,29.71,10,10,10,25,17,34,0.00,4,,225
2013-2-9,57,45,32,36,36,36,62,62,62,30.02,29.91,29.82,10,10,10,13,7,20,0.00,1,,197
2013-2-10,55,40,24,,,,,,,30.07,30.01,29.92,10,10,10,10,4,,0.00,2,,240
2013-2-11,55,44,30,14,4,-1,36,20,10,30.26,30.15,30.05,10,10,10,17,11,25,0.00,0,,348
2013-2-12,59,40,21,8,6,2,42,26,13,30.39,30.31,30.26,10,10,10,9,4,,0.00,0,,186
2013-2-13,66,45,24,14,12,6,48,29,13,30.34,30.25,30.16,10,10,10,10,5,,0.00,0,,189
2013-2-14,70,50,30,22,18,11,50,30,15,30.27,30.22,30.15,10,10,10,15,6,20,0.00,0,,153
2013-2-15,72,54,35,24,17,11,52,28,12,30.35,30.30,30.25,10,10,10,13,5,20,0.00,0,,168
2013-2-16,69,48,28,14,10,7,45,25,10,30.33,30.19,30.00,10,10,10,10,3,,0.00,0,,213
2013-2-17,71,50,28,24,11,3,41,25,7,29.99,29.91,29.83,10,10,10,9,4,,0.00,0,,134
2013-2-18,66,48,30,28,21,17,59,34,16,30.04,29.92,29.81,10,10,10,20,5,25,0.00,0,,203
2013-2-19,57,46,36,33,26,14,65,47,25,29.80,29.67,29.53,10,10,10,29,12,43,0.00,4,,209
2013-2-20,61,48,34,32,20,11,79,38,14,29.90,29.71,29.51,10,10,10,13,9,22,0.00,3,Rain,306
2013-2-21,55,40,26,20,14,5,60,37,15,30.10,30.00,29.90,10,10,10,9,3,,0.00,1,,166
2013-2-22,61,44,26,25,14,7,63,36,13,30.22,30.14,30.10,10,10,10,9,4,,0.00,1,,196
2013-2-23,66,48,30,25,19,8,54,32,19,30.12,29.95,29.79,10,10,9,28,9,38,0.00,0,,277
2013-2-24,59,48,36,10,3,-2,31,18,9,30.24,30.17,30.12,10,10,10,15,10,26,0.00,0,,342
2013-2-25,60,42,25,8,1,-2,31,20,11,30.28,30.18,29.99,10,10,10,7,5,,0.00,0,,202
2013-2-26,62,44,25,12,6,2,47,21,10,30.22,30.14,30.08,10,10,10,10,4,,0.00,0,,159
2013-2-27,62,44,27,8,4,1,33,20,10,30.37,30.32,30.24,10,10,10,9,5,,0.00,0,,216
2013-2-28,69,48,28,7,5,1,36,19,9,30.45,30.39,30.34,10,10,10,9,2,,0.00,0,,189